sensor_id;sensor_type;location;lat;lon;timestamp;P1;durP1;ratioP1;P2;durP2;ratioP2
47713;SDS011;33475;46.614;13.888;2023-07-08T00:00:44;3.72;;;3.42;;
47713;SDS011;33475;46.614;13.888;2023-07-08T00:03:13;4.50;;;3.35;;
47713;SDS011;33475;46.614;13.888;2023-07-08T00:05:40;3.30;;;2.90;;
47713;SDS011;33475;46.614;13.888;2023-07-08T00:08:15;3.15;;;2.85;;
47713;SDS011;33475;46.614;13.888;2023-07-08T00:10:42;5.45;;;3.15;;
47713;SDS011;33475;46.614;13.888;2023-07-08T00:13:08;5.05;;;3.45;;
47713;SDS011;33475;46.614;13.888;2023-07-08T00:15:35;4.78;;;3.30;;
47713;SDS011;33475;46.614;13.888;2023-07-08T00:18:05;4.93;;;3.55;;
47713;SDS011;33475;46.614;13.888;2023-07-08T00:20:40;3.55;;;2.92;;
47713;SDS011;33475;46.614;13.888;2023-07-08T00:23:07;9.90;;;3.28;;
47713;SDS011;33475;46.614;13.888;2023-07-08T00:25:34;4.57;;;3.33;;
47713;SDS011;33475;46.614;13.888;2023-07-08T00:28:00;5.35;;;3.45;;
47713;SDS011;33475;46.614;13.888;2023-07-08T00:30:27;4.20;;;3.80;;
47713;SDS011;33475;46.614;13.888;2023-07-08T00:32:54;7.68;;;3.65;;
47713;SDS011;33475;46.614;13.888;2023-07-08T00:37:56;6.80;;;3.00;;
47713;SDS011;33475;46.614;13.888;2023-07-08T00:40:26;4.00;;;3.60;;
47713;SDS011;33475;46.614;13.888;2023-07-08T00:42:53;3.92;;;3.50;;
47713;SDS011;33475;46.614;13.888;2023-07-08T00:48:22;5.22;;;3.25;;
47713;SDS011;33475;46.614;13.888;2023-07-08T00:50:47;6.05;;;3.08;;
47713;SDS011;33475;46.614;13.888;2023-07-08T00:53:22;5.03;;;3.55;;
47713;SDS011;33475;46.614;13.888;2023-07-08T00:55:50;8.50;;;3.83;;
47713;SDS011;33475;46.614;13.888;2023-07-08T00:58:17;4.40;;;3.40;;
47713;SDS011;33475;46.614;13.888;2023-07-08T01:00:45;8.57;;;3.28;;
47713;SDS011;33475;46.614;13.888;2023-07-08T01:03:11;7.07;;;3.83;;
47713;SDS011;33475;46.614;13.888;2023-07-08T01:05:37;3.70;;;3.40;;
47713;SDS011;33475;46.614;13.888;2023-07-08T01:08:04;5.35;;;3.75;;
47713;SDS011;33475;46.614;13.888;2023-07-08T01:13:28;4.22;;;3.60;;
47713;SDS011;33475;46.614;13.888;2023-07-08T01:15:56;5.22;;;3.67;;
47713;SDS011;33475;46.614;13.888;2023-07-08T01:18:24;7.63;;;3.78;;
47713;SDS011;33475;46.614;13.888;2023-07-08T01:20:50;5.85;;;4.03;;
47713;SDS011;33475;46.614;13.888;2023-07-08T01:23:20;7.82;;;3.40;;
47713;SDS011;33475;46.614;13.888;2023-07-08T01:25:46;3.80;;;3.42;;
47713;SDS011;33475;46.614;13.888;2023-07-08T01:28:13;3.67;;;3.15;;
47713;SDS011;33475;46.614;13.888;2023-07-08T01:30:42;5.65;;;3.50;;
47713;SDS011;33475;46.614;13.888;2023-07-08T01:33:15;7.97;;;3.55;;
47713;SDS011;33475;46.614;13.888;2023-07-08T01:35:42;5.80;;;3.20;;
47713;SDS011;33475;46.614;13.888;2023-07-08T01:38:10;4.78;;;4.00;;
47713;SDS011;33475;46.614;13.888;2023-07-08T01:40:50;4.20;;;3.60;;
47713;SDS011;33475;46.614;13.888;2023-07-08T01:43:17;3.97;;;3.40;;
47713;SDS011;33475;46.614;13.888;2023-07-08T01:45:43;6.65;;;3.45;;
47713;SDS011;33475;46.614;13.888;2023-07-08T01:48:14;6.22;;;3.30;;
47713;SDS011;33475;46.614;13.888;2023-07-08T01:53:16;3.85;;;3.28;;
47713;SDS011;33475;46.614;13.888;2023-07-08T01:55:43;4.32;;;3.35;;
47713;SDS011;33475;46.614;13.888;2023-07-08T01:58:09;12.05;;;4.90;;
47713;SDS011;33475;46.614;13.888;2023-07-08T02:00:35;4.70;;;4.30;;
47713;SDS011;33475;46.614;13.888;2023-07-08T02:03:01;5.05;;;3.70;;
47713;SDS011;33475;46.614;13.888;2023-07-08T02:05:27;4.00;;;3.50;;
47713;SDS011;33475;46.614;13.888;2023-07-08T02:07:53;4.18;;;3.63;;
47713;SDS011;33475;46.614;13.888;2023-07-08T02:10:21;8.23;;;3.95;;
47713;SDS011;33475;46.614;13.888;2023-07-08T02:12:50;5.38;;;3.80;;
47713;SDS011;33475;46.614;13.888;2023-07-08T02:15:16;5.35;;;4.25;;
47713;SDS011;33475;46.614;13.888;2023-07-08T02:17:42;5.15;;;4.32;;
47713;SDS011;33475;46.614;13.888;2023-07-08T02:20:08;5.63;;;3.78;;
47713;SDS011;33475;46.614;13.888;2023-07-08T02:22:35;7.47;;;3.70;;
47713;SDS011;33475;46.614;13.888;2023-07-08T02:25:02;5.75;;;3.30;;
47713;SDS011;33475;46.614;13.888;2023-07-08T02:27:28;6.70;;;3.65;;
47713;SDS011;33475;46.614;13.888;2023-07-08T02:29:54;5.05;;;3.65;;
47713;SDS011;33475;46.614;13.888;2023-07-08T02:32:21;5.22;;;3.63;;
47713;SDS011;33475;46.614;13.888;2023-07-08T02:34:47;6.07;;;3.60;;
47713;SDS011;33475;46.614;13.888;2023-07-08T02:37:13;5.22;;;3.88;;
47713;SDS011;33475;46.614;13.888;2023-07-08T02:39:39;11.00;;;3.78;;
47713;SDS011;33475;46.614;13.888;2023-07-08T02:42:05;4.55;;;3.70;;
47713;SDS011;33475;46.614;13.888;2023-07-08T02:44:31;4.50;;;3.97;;
47713;SDS011;33475;46.614;13.888;2023-07-08T02:46:57;5.75;;;4.13;;
47713;SDS011;33475;46.614;13.888;2023-07-08T02:49:23;4.70;;;3.90;;
47713;SDS011;33475;46.614;13.888;2023-07-08T02:51:50;6.88;;;4.07;;
47713;SDS011;33475;46.614;13.888;2023-07-08T02:54:16;5.00;;;4.35;;
47713;SDS011;33475;46.614;13.888;2023-07-08T02:56:42;4.10;;;3.63;;
47713;SDS011;33475;46.614;13.888;2023-07-08T02:59:08;6.07;;;3.80;;
47713;SDS011;33475;46.614;13.888;2023-07-08T03:01:34;7.72;;;4.03;;
47713;SDS011;33475;46.614;13.888;2023-07-08T03:04:07;10.25;;;3.70;;
47713;SDS011;33475;46.614;13.888;2023-07-08T03:06:34;4.53;;;3.60;;
47713;SDS011;33475;46.614;13.888;2023-07-08T03:09:00;4.25;;;3.83;;
47713;SDS011;33475;46.614;13.888;2023-07-08T03:11:26;5.47;;;4.32;;
47713;SDS011;33475;46.614;13.888;2023-07-08T03:13:52;10.82;;;3.95;;
47713;SDS011;33475;46.614;13.888;2023-07-08T03:16:19;4.40;;;3.70;;
47713;SDS011;33475;46.614;13.888;2023-07-08T03:18:45;3.88;;;3.50;;
47713;SDS011;33475;46.614;13.888;2023-07-08T03:21:12;3.50;;;3.13;;
47713;SDS011;33475;46.614;13.888;2023-07-08T03:23:40;11.40;;;5.00;;
47713;SDS011;33475;46.614;13.888;2023-07-08T03:26:06;5.45;;;3.50;;
47713;SDS011;33475;46.614;13.888;2023-07-08T03:28:32;4.10;;;3.70;;
47713;SDS011;33475;46.614;13.888;2023-07-08T03:30:58;6.45;;;3.67;;
47713;SDS011;33475;46.614;13.888;2023-07-08T03:33:24;5.10;;;3.55;;
47713;SDS011;33475;46.614;13.888;2023-07-08T03:35:50;6.60;;;3.78;;
47713;SDS011;33475;46.614;13.888;2023-07-08T03:38:17;7.50;;;3.78;;
47713;SDS011;33475;46.614;13.888;2023-07-08T03:40:43;4.65;;;3.63;;
47713;SDS011;33475;46.614;13.888;2023-07-08T03:43:09;5.57;;;3.63;;
47713;SDS011;33475;46.614;13.888;2023-07-08T03:45:35;4.68;;;4.15;;
47713;SDS011;33475;46.614;13.888;2023-07-08T03:48:01;4.53;;;3.50;;
47713;SDS011;33475;46.614;13.888;2023-07-08T03:50:28;4.57;;;4.05;;
47713;SDS011;33475;46.614;13.888;2023-07-08T03:52:54;7.05;;;3.88;;
47713;SDS011;33475;46.614;13.888;2023-07-08T03:55:21;5.47;;;4.00;;
47713;SDS011;33475;46.614;13.888;2023-07-08T03:57:48;7.43;;;4.63;;
47713;SDS011;33475;46.614;13.888;2023-07-08T04:00:14;7.80;;;3.92;;
47713;SDS011;33475;46.614;13.888;2023-07-08T04:02:41;4.90;;;3.47;;
47713;SDS011;33475;46.614;13.888;2023-07-08T04:05:12;4.70;;;3.70;;
47713;SDS011;33475;46.614;13.888;2023-07-08T04:07:39;4.90;;;3.70;;
47713;SDS011;33475;46.614;13.888;2023-07-08T04:10:06;6.68;;;3.65;;
47713;SDS011;33475;46.614;13.888;2023-07-08T04:12:33;4.32;;;3.83;;
47713;SDS011;33475;46.614;13.888;2023-07-08T04:14:59;4.82;;;4.10;;
47713;SDS011;33475;46.614;13.888;2023-07-08T04:17:25;6.80;;;4.60;;
47713;SDS011;33475;46.614;13.888;2023-07-08T04:19:51;6.78;;;3.70;;
47713;SDS011;33475;46.614;13.888;2023-07-08T04:22:17;9.45;;;3.90;;
47713;SDS011;33475;46.614;13.888;2023-07-08T04:24:43;8.55;;;4.43;;
47713;SDS011;33475;46.614;13.888;2023-07-08T04:27:13;6.00;;;4.22;;
47713;SDS011;33475;46.614;13.888;2023-07-08T04:29:40;4.07;;;3.63;;
47713;SDS011;33475;46.614;13.888;2023-07-08T04:32:07;4.88;;;3.80;;
47713;SDS011;33475;46.614;13.888;2023-07-08T04:34:33;4.32;;;3.70;;
47713;SDS011;33475;46.614;13.888;2023-07-08T04:36:59;9.40;;;4.18;;
47713;SDS011;33475;46.614;13.888;2023-07-08T04:39:26;5.38;;;3.65;;
47713;SDS011;33475;46.614;13.888;2023-07-08T04:41:52;4.95;;;4.18;;
47713;SDS011;33475;46.614;13.888;2023-07-08T04:44:19;8.43;;;4.07;;
47713;SDS011;33475;46.614;13.888;2023-07-08T04:46:49;6.45;;;3.22;;
47713;SDS011;33475;46.614;13.888;2023-07-08T04:49:16;9.70;;;3.90;;
47713;SDS011;33475;46.614;13.888;2023-07-08T04:51:42;4.40;;;3.65;;
47713;SDS011;33475;46.614;13.888;2023-07-08T04:54:09;6.57;;;4.35;;
47713;SDS011;33475;46.614;13.888;2023-07-08T04:56:39;4.10;;;3.70;;
47713;SDS011;33475;46.614;13.888;2023-07-08T04:59:10;4.65;;;4.18;;
47713;SDS011;33475;46.614;13.888;2023-07-08T05:01:38;4.00;;;3.60;;
47713;SDS011;33475;46.614;13.888;2023-07-08T05:04:05;4.05;;;3.70;;
47713;SDS011;33475;46.614;13.888;2023-07-08T05:06:32;9.52;;;4.22;;
47713;SDS011;33475;46.614;13.888;2023-07-08T05:08:58;6.25;;;3.33;;
47713;SDS011;33475;46.614;13.888;2023-07-08T05:11:25;5.50;;;3.63;;
47713;SDS011;33475;46.614;13.888;2023-07-08T05:13:51;5.70;;;3.50;;
47713;SDS011;33475;46.614;13.888;2023-07-08T05:16:17;5.03;;;3.45;;
47713;SDS011;33475;46.614;13.888;2023-07-08T05:18:44;4.93;;;3.60;;
47713;SDS011;33475;46.614;13.888;2023-07-08T05:21:10;4.20;;;3.78;;
47713;SDS011;33475;46.614;13.888;2023-07-08T05:23:37;4.40;;;3.70;;
47713;SDS011;33475;46.614;13.888;2023-07-08T05:26:03;4.30;;;3.90;;
47713;SDS011;33475;46.614;13.888;2023-07-08T05:28:30;4.25;;;3.85;;
47713;SDS011;33475;46.614;13.888;2023-07-08T05:30:56;4.32;;;3.72;;
47713;SDS011;33475;46.614;13.888;2023-07-08T05:33:23;4.75;;;3.85;;
47713;SDS011;33475;46.614;13.888;2023-07-08T05:35:50;4.40;;;3.30;;
47713;SDS011;33475;46.614;13.888;2023-07-08T05:38:16;8.77;;;4.20;;
47713;SDS011;33475;46.614;13.888;2023-07-08T05:40:42;3.72;;;3.42;;
47713;SDS011;33475;46.614;13.888;2023-07-08T05:43:09;4.00;;;3.55;;
47713;SDS011;33475;46.614;13.888;2023-07-08T05:45:35;7.18;;;3.70;;
47713;SDS011;33475;46.614;13.888;2023-07-08T05:48:01;5.25;;;4.22;;
47713;SDS011;33475;46.614;13.888;2023-07-08T05:50:27;6.72;;;3.83;;
47713;SDS011;33475;46.614;13.888;2023-07-08T05:52:53;4.85;;;3.85;;
47713;SDS011;33475;46.614;13.888;2023-07-08T05:55:20;6.80;;;4.90;;
47713;SDS011;33475;46.614;13.888;2023-07-08T05:57:46;4.90;;;4.40;;
47713;SDS011;33475;46.614;13.888;2023-07-08T06:00:12;7.70;;;4.60;;
47713;SDS011;33475;46.614;13.888;2023-07-08T06:02:38;4.82;;;4.35;;
47713;SDS011;33475;46.614;13.888;2023-07-08T06:05:05;4.07;;;3.60;;
47713;SDS011;33475;46.614;13.888;2023-07-08T06:07:31;4.72;;;4.22;;
47713;SDS011;33475;46.614;13.888;2023-07-08T06:09:57;7.88;;;4.20;;
47713;SDS011;33475;46.614;13.888;2023-07-08T06:12:24;6.80;;;4.47;;
47713;SDS011;33475;46.614;13.888;2023-07-08T06:14:50;5.18;;;3.80;;
47713;SDS011;33475;46.614;13.888;2023-07-08T06:17:17;6.63;;;4.13;;
47713;SDS011;33475;46.614;13.888;2023-07-08T06:19:43;4.70;;;4.20;;
47713;SDS011;33475;46.614;13.888;2023-07-08T06:22:10;4.82;;;4.32;;
47713;SDS011;33475;46.614;13.888;2023-07-08T06:24:36;10.63;;;4.47;;
47713;SDS011;33475;46.614;13.888;2023-07-08T06:27:02;5.45;;;4.30;;
47713;SDS011;33475;46.614;13.888;2023-07-08T06:29:28;6.50;;;4.07;;
47713;SDS011;33475;46.614;13.888;2023-07-08T06:31:57;5.07;;;4.20;;
47713;SDS011;33475;46.614;13.888;2023-07-08T06:34:24;4.32;;;3.88;;
47713;SDS011;33475;46.614;13.888;2023-07-08T06:36:50;4.85;;;3.65;;
47713;SDS011;33475;46.614;13.888;2023-07-08T06:39:16;4.72;;;4.22;;
47713;SDS011;33475;46.614;13.888;2023-07-08T06:41:43;3.95;;;3.63;;
47713;SDS011;33475;46.614;13.888;2023-07-08T06:44:09;4.30;;;3.83;;
47713;SDS011;33475;46.614;13.888;2023-07-08T06:46:36;6.03;;;3.63;;
47713;SDS011;33475;46.614;13.888;2023-07-08T06:49:02;7.22;;;4.18;;
47713;SDS011;33475;46.614;13.888;2023-07-08T06:51:28;4.25;;;3.85;;
47713;SDS011;33475;46.614;13.888;2023-07-08T06:53:55;4.20;;;3.80;;
47713;SDS011;33475;46.614;13.888;2023-07-08T06:56:21;4.03;;;3.58;;
47713;SDS011;33475;46.614;13.888;2023-07-08T06:58:47;3.90;;;3.47;;
47713;SDS011;33475;46.614;13.888;2023-07-08T07:01:13;4.28;;;3.85;;
47713;SDS011;33475;46.614;13.888;2023-07-08T07:03:40;4.90;;;3.97;;
47713;SDS011;33475;46.614;13.888;2023-07-08T07:06:06;4.53;;;3.92;;
47713;SDS011;33475;46.614;13.888;2023-07-08T07:08:33;3.35;;;3.05;;
47713;SDS011;33475;46.614;13.888;2023-07-08T07:10:59;3.40;;;3.10;;
47713;SDS011;33475;46.614;13.888;2023-07-08T07:13:25;6.68;;;3.85;;
47713;SDS011;33475;46.614;13.888;2023-07-08T07:15:51;5.15;;;3.78;;
47713;SDS011;33475;46.614;13.888;2023-07-08T07:18:17;4.35;;;3.72;;
47713;SDS011;33475;46.614;13.888;2023-07-08T07:20:50;4.70;;;3.55;;
47713;SDS011;33475;46.614;13.888;2023-07-08T07:23:16;4.57;;;4.07;;
47713;SDS011;33475;46.614;13.888;2023-07-08T07:25:43;7.43;;;3.67;;
47713;SDS011;33475;46.614;13.888;2023-07-08T07:28:10;5.13;;;3.90;;
47713;SDS011;33475;46.614;13.888;2023-07-08T07:30:36;4.47;;;4.07;;
47713;SDS011;33475;46.614;13.888;2023-07-08T07:33:02;6.53;;;3.63;;
47713;SDS011;33475;46.614;13.888;2023-07-08T07:35:29;4.85;;;3.60;;
47713;SDS011;33475;46.614;13.888;2023-07-08T07:37:55;5.20;;;4.38;;
47713;SDS011;33475;46.614;13.888;2023-07-08T07:40:21;4.05;;;3.50;;
47713;SDS011;33475;46.614;13.888;2023-07-08T07:42:47;4.32;;;3.83;;
47713;SDS011;33475;46.614;13.888;2023-07-08T07:45:13;7.40;;;4.15;;
47713;SDS011;33475;46.614;13.888;2023-07-08T07:47:40;4.57;;;4.10;;
47713;SDS011;33475;46.614;13.888;2023-07-08T07:50:07;4.38;;;3.60;;
47713;SDS011;33475;46.614;13.888;2023-07-08T07:52:34;6.57;;;4.03;;
47713;SDS011;33475;46.614;13.888;2023-07-08T07:55:00;4.38;;;3.97;;
47713;SDS011;33475;46.614;13.888;2023-07-08T07:57:27;4.47;;;3.95;;
47713;SDS011;33475;46.614;13.888;2023-07-08T07:59:53;5.10;;;4.20;;
47713;SDS011;33475;46.614;13.888;2023-07-08T08:02:19;6.38;;;5.05;;
47713;SDS011;33475;46.614;13.888;2023-07-08T08:04:45;4.20;;;3.80;;
47713;SDS011;33475;46.614;13.888;2023-07-08T08:07:11;5.20;;;3.75;;
47713;SDS011;33475;46.614;13.888;2023-07-08T08:09:37;4.55;;;3.45;;
47713;SDS011;33475;46.614;13.888;2023-07-08T08:12:06;5.38;;;4.88;;
47713;SDS011;33475;46.614;13.888;2023-07-08T08:14:33;6.32;;;5.72;;
47713;SDS011;33475;46.614;13.888;2023-07-08T08:16:59;5.68;;;3.88;;
47713;SDS011;33475;46.614;13.888;2023-07-08T08:19:26;6.15;;;4.00;;
47713;SDS011;33475;46.614;13.888;2023-07-08T08:21:52;4.95;;;4.55;;
47713;SDS011;33475;46.614;13.888;2023-07-08T08:24:18;5.25;;;4.70;;
47713;SDS011;33475;46.614;13.888;2023-07-08T08:26:44;6.15;;;3.60;;
47713;SDS011;33475;46.614;13.888;2023-07-08T08:29:10;4.32;;;3.88;;
47713;SDS011;33475;46.614;13.888;2023-07-08T08:31:37;4.40;;;3.63;;
47713;SDS011;33475;46.614;13.888;2023-07-08T08:34:03;7.38;;;6.75;;
47713;SDS011;33475;46.614;13.888;2023-07-08T08:36:29;11.48;;;7.38;;
47713;SDS011;33475;46.614;13.888;2023-07-08T08:38:55;4.15;;;3.63;;
47713;SDS011;33475;46.614;13.888;2023-07-08T08:41:29;5.50;;;5.00;;
47713;SDS011;33475;46.614;13.888;2023-07-08T08:43:55;5.05;;;4.47;;
47713;SDS011;33475;46.614;13.888;2023-07-08T08:48:56;4.93;;;3.42;;
47713;SDS011;33475;46.614;13.888;2023-07-08T08:51:25;4.10;;;3.42;;
47713;SDS011;33475;46.614;13.888;2023-07-08T08:53:52;6.07;;;4.07;;
47713;SDS011;33475;46.614;13.888;2023-07-08T08:56:21;4.13;;;3.65;;
47713;SDS011;33475;46.614;13.888;2023-07-08T09:01:20;4.85;;;3.28;;
47713;SDS011;33475;46.614;13.888;2023-07-08T09:03:55;4.30;;;3.58;;
47713;SDS011;33475;46.614;13.888;2023-07-08T09:06:24;6.13;;;3.45;;
47713;SDS011;33475;46.614;13.888;2023-07-08T09:08:51;4.93;;;3.35;;
47713;SDS011;33475;46.614;13.888;2023-07-08T09:14:02;4.53;;;3.40;;
47713;SDS011;33475;46.614;13.888;2023-07-08T09:16:39;3.72;;;3.30;;
47713;SDS011;33475;46.614;13.888;2023-07-08T09:19:08;3.65;;;3.25;;
47713;SDS011;33475;46.614;13.888;2023-07-08T09:24:04;4.57;;;3.45;;
47713;SDS011;33475;46.614;13.888;2023-07-08T09:26:33;3.47;;;3.17;;
47713;SDS011;33475;46.614;13.888;2023-07-08T09:28:59;3.85;;;3.55;;
47713;SDS011;33475;46.614;13.888;2023-07-08T09:31:27;5.55;;;3.70;;
47713;SDS011;33475;46.614;13.888;2023-07-08T09:33:54;4.70;;;3.65;;
47713;SDS011;33475;46.614;13.888;2023-07-08T09:36:30;3.70;;;3.40;;
47713;SDS011;33475;46.614;13.888;2023-07-08T09:38:56;4.20;;;3.50;;
47713;SDS011;33475;46.614;13.888;2023-07-08T09:41:33;4.68;;;3.20;;
47713;SDS011;33475;46.614;13.888;2023-07-08T09:44:05;5.45;;;3.63;;
47713;SDS011;33475;46.614;13.888;2023-07-08T09:46:35;4.97;;;3.22;;
47713;SDS011;33475;46.614;13.888;2023-07-08T09:49:15;4.10;;;3.33;;
47713;SDS011;33475;46.614;13.888;2023-07-08T09:51:42;4.38;;;3.20;;
47713;SDS011;33475;46.614;13.888;2023-07-08T09:54:09;3.78;;;3.45;;
47713;SDS011;33475;46.614;13.888;2023-07-08T09:56:35;4.13;;;3.00;;
47713;SDS011;33475;46.614;13.888;2023-07-08T09:59:01;3.72;;;3.22;;
47713;SDS011;33475;46.614;13.888;2023-07-08T10:01:28;3.20;;;2.90;;
47713;SDS011;33475;46.614;13.888;2023-07-08T10:03:58;4.95;;;3.85;;
47713;SDS011;33475;46.614;13.888;2023-07-08T10:06:26;3.38;;;3.05;;
47713;SDS011;33475;46.614;13.888;2023-07-08T10:08:53;4.43;;;3.20;;
47713;SDS011;33475;46.614;13.888;2023-07-08T10:13:53;4.05;;;2.70;;
47713;SDS011;33475;46.614;13.888;2023-07-08T10:16:24;3.63;;;3.17;;
47713;SDS011;33475;46.614;13.888;2023-07-08T10:18:51;3.15;;;2.88;;
47713;SDS011;33475;46.614;13.888;2023-07-08T10:21:41;3.38;;;3.08;;
47713;SDS011;33475;46.614;13.888;2023-07-08T10:29:44;3.42;;;2.92;;
47713;SDS011;33475;46.614;13.888;2023-07-08T10:40:07;2.67;;;2.45;;
47713;SDS011;33475;46.614;13.888;2023-07-08T10:45:26;3.08;;;2.88;;
47713;SDS011;33475;46.614;13.888;2023-07-08T11:01:07;4.40;;;3.00;;
47713;SDS011;33475;46.614;13.888;2023-07-08T11:03:53;3.80;;;3.40;;
47713;SDS011;33475;46.614;13.888;2023-07-08T11:06:24;3.05;;;2.80;;
47713;SDS011;33475;46.614;13.888;2023-07-08T11:08:55;4.00;;;2.95;;
47713;SDS011;33475;46.614;13.888;2023-07-08T11:14:05;2.88;;;2.55;;
47713;SDS011;33475;46.614;13.888;2023-07-08T11:16:37;3.17;;;2.87;;
47713;SDS011;33475;46.614;13.888;2023-07-08T11:19:08;3.00;;;2.67;;
47713;SDS011;33475;46.614;13.888;2023-07-08T11:21:41;2.70;;;2.47;;
47713;SDS011;33475;46.614;13.888;2023-07-08T11:26:43;3.10;;;2.80;;
47713;SDS011;33475;46.614;13.888;2023-07-08T11:29:15;3.60;;;2.65;;
47713;SDS011;33475;46.614;13.888;2023-07-08T11:31:43;4.75;;;2.90;;
47713;SDS011;33475;46.614;13.888;2023-07-08T11:34:10;2.90;;;2.70;;
47713;SDS011;33475;46.614;13.888;2023-07-08T11:36:37;2.92;;;2.70;;
47713;SDS011;33475;46.614;13.888;2023-07-08T11:39:04;5.00;;;2.80;;
47713;SDS011;33475;46.614;13.888;2023-07-08T11:41:50;3.72;;;2.85;;
47713;SDS011;33475;46.614;13.888;2023-07-08T11:44:18;2.80;;;2.60;;
47713;SDS011;33475;46.614;13.888;2023-07-08T11:46:53;3.33;;;2.85;;
47713;SDS011;33475;46.614;13.888;2023-07-08T11:49:20;3.08;;;2.60;;
47713;SDS011;33475;46.614;13.888;2023-07-08T11:51:46;3.35;;;3.03;;
47713;SDS011;33475;46.614;13.888;2023-07-08T11:59:30;3.25;;;2.95;;
47713;SDS011;33475;46.614;13.888;2023-07-08T12:02:04;6.38;;;2.85;;
47713;SDS011;33475;46.614;13.888;2023-07-08T12:04:34;3.22;;;2.92;;
47713;SDS011;33475;46.614;13.888;2023-07-08T12:09:38;3.33;;;2.80;;
47713;SDS011;33475;46.614;13.888;2023-07-08T12:12:13;3.00;;;2.70;;
47713;SDS011;33475;46.614;13.888;2023-07-08T12:14:40;2.85;;;2.65;;
47713;SDS011;33475;46.614;13.888;2023-07-08T12:17:13;3.00;;;2.70;;
47713;SDS011;33475;46.614;13.888;2023-07-08T12:19:41;2.90;;;2.70;;
47713;SDS011;33475;46.614;13.888;2023-07-08T12:22:09;4.00;;;2.70;;
47713;SDS011;33475;46.614;13.888;2023-07-08T12:24:37;3.03;;;2.70;;
47713;SDS011;33475;46.614;13.888;2023-07-08T12:27:04;2.85;;;2.55;;
47713;SDS011;33475;46.614;13.888;2023-07-08T12:29:30;2.80;;;2.60;;
47713;SDS011;33475;46.614;13.888;2023-07-08T12:31:57;3.08;;;2.80;;
47713;SDS011;33475;46.614;13.888;2023-07-08T12:34:24;2.75;;;2.45;;
47713;SDS011;33475;46.614;13.888;2023-07-08T12:36:51;2.70;;;2.50;;
47713;SDS011;33475;46.614;13.888;2023-07-08T12:39:17;5.00;;;2.60;;
47713;SDS011;33475;46.614;13.888;2023-07-08T12:41:44;4.60;;;2.85;;
47713;SDS011;33475;46.614;13.888;2023-07-08T12:44:18;3.28;;;2.85;;
47713;SDS011;33475;46.614;13.888;2023-07-08T12:46:45;3.00;;;2.72;;
47713;SDS011;33475;46.614;13.888;2023-07-08T12:49:12;2.90;;;2.70;;
47713;SDS011;33475;46.614;13.888;2023-07-08T12:51:43;4.15;;;2.30;;
47713;SDS011;33475;46.614;13.888;2023-07-08T12:54:09;3.35;;;2.65;;
47713;SDS011;33475;46.614;13.888;2023-07-08T12:56:36;3.00;;;2.63;;
47713;SDS011;33475;46.614;13.888;2023-07-08T12:59:03;3.42;;;2.75;;
47713;SDS011;33475;46.614;13.888;2023-07-08T13:01:30;3.10;;;2.80;;
47713;SDS011;33475;46.614;13.888;2023-07-08T13:03:59;2.75;;;2.55;;
47713;SDS011;33475;46.614;13.888;2023-07-08T13:06:27;3.00;;;2.50;;
47713;SDS011;33475;46.614;13.888;2023-07-08T13:09:56;3.55;;;2.55;;
47713;SDS011;33475;46.614;13.888;2023-07-08T13:11:51;2.80;;;2.60;;
47713;SDS011;33475;46.614;13.888;2023-07-08T13:14:21;2.67;;;2.45;;
47713;SDS011;33475;46.614;13.888;2023-07-08T13:16:48;2.75;;;2.55;;
47713;SDS011;33475;46.614;13.888;2023-07-08T13:19:14;3.45;;;2.35;;
47713;SDS011;33475;46.614;13.888;2023-07-08T13:21:40;3.08;;;2.83;;
47713;SDS011;33475;46.614;13.888;2023-07-08T13:24:08;3.90;;;2.78;;
47713;SDS011;33475;46.614;13.888;2023-07-08T13:26:38;2.65;;;2.45;;
47713;SDS011;33475;46.614;13.888;2023-07-08T13:29:09;2.60;;;2.40;;
47713;SDS011;33475;46.614;13.888;2023-07-08T13:31:37;2.63;;;2.30;;
47713;SDS011;33475;46.614;13.888;2023-07-08T13:34:06;2.47;;;2.28;;
47713;SDS011;33475;46.614;13.888;2023-07-08T13:36:34;2.72;;;2.53;;
47713;SDS011;33475;46.614;13.888;2023-07-08T13:39:02;4.00;;;2.60;;
47713;SDS011;33475;46.614;13.888;2023-07-08T13:41:30;3.97;;;2.70;;
47713;SDS011;33475;46.614;13.888;2023-07-08T13:43:56;3.05;;;2.25;;
47713;SDS011;33475;46.614;13.888;2023-07-08T13:46:33;2.67;;;2.47;;
47713;SDS011;33475;46.614;13.888;2023-07-08T13:49:00;2.70;;;2.50;;
47713;SDS011;33475;46.614;13.888;2023-07-08T13:51:30;2.58;;;2.38;;
47713;SDS011;33475;46.614;13.888;2023-07-08T13:53:58;4.70;;;2.67;;
47713;SDS011;33475;46.614;13.888;2023-07-08T13:56:27;2.85;;;2.63;;
47713;SDS011;33475;46.614;13.888;2023-07-08T13:59:02;2.95;;;2.53;;
47713;SDS011;33475;46.614;13.888;2023-07-08T14:01:29;3.05;;;2.20;;
47713;SDS011;33475;46.614;13.888;2023-07-08T14:03:55;3.75;;;2.80;;
47713;SDS011;33475;46.614;13.888;2023-07-08T14:06:27;2.90;;;2.63;;
47713;SDS011;33475;46.614;13.888;2023-07-08T14:08:55;2.53;;;2.33;;
47713;SDS011;33475;46.614;13.888;2023-07-08T14:11:22;3.95;;;2.63;;
47713;SDS011;33475;46.614;13.888;2023-07-08T14:13:49;2.63;;;2.42;;
47713;SDS011;33475;46.614;13.888;2023-07-08T14:16:23;2.80;;;2.60;;
47713;SDS011;33475;46.614;13.888;2023-07-08T14:18:50;3.65;;;2.47;;
47713;SDS011;33475;46.614;13.888;2023-07-08T14:21:17;2.50;;;2.30;;
47713;SDS011;33475;46.614;13.888;2023-07-08T14:23:43;2.80;;;2.60;;
47713;SDS011;33475;46.614;13.888;2023-07-08T14:26:10;3.83;;;2.63;;
47713;SDS011;33475;46.614;13.888;2023-07-08T14:28:37;3.55;;;2.63;;
47713;SDS011;33475;46.614;13.888;2023-07-08T14:31:04;6.97;;;2.67;;
47713;SDS011;33475;46.614;13.888;2023-07-08T14:33:34;2.42;;;2.22;;
47713;SDS011;33475;46.614;13.888;2023-07-08T14:36:00;6.25;;;2.60;;
47713;SDS011;33475;46.614;13.888;2023-07-08T14:38:26;2.65;;;2.45;;
47713;SDS011;33475;46.614;13.888;2023-07-08T14:40:52;2.85;;;2.58;;
47713;SDS011;33475;46.614;13.888;2023-07-08T14:43:25;2.35;;;2.15;;
47713;SDS011;33475;46.614;13.888;2023-07-08T14:45:54;2.85;;;2.40;;
47713;SDS011;33475;46.614;13.888;2023-07-08T14:48:21;4.35;;;2.60;;
47713;SDS011;33475;46.614;13.888;2023-07-08T14:50:47;3.13;;;2.40;;
47713;SDS011;33475;46.614;13.888;2023-07-08T14:53:14;3.20;;;2.45;;
47713;SDS011;33475;46.614;13.888;2023-07-08T14:55:40;2.72;;;2.50;;
47713;SDS011;33475;46.614;13.888;2023-07-08T14:58:08;3.05;;;2.63;;
47713;SDS011;33475;46.614;13.888;2023-07-08T15:00:36;2.70;;;2.50;;
47713;SDS011;33475;46.614;13.888;2023-07-08T15:03:02;2.65;;;2.40;;
47713;SDS011;33475;46.614;13.888;2023-07-08T15:05:28;2.67;;;2.45;;
47713;SDS011;33475;46.614;13.888;2023-07-08T15:07:55;2.67;;;2.42;;
47713;SDS011;33475;46.614;13.888;2023-07-08T15:10:28;6.53;;;3.00;;
47713;SDS011;33475;46.614;13.888;2023-07-08T15:12:55;2.85;;;2.55;;
47713;SDS011;33475;46.614;13.888;2023-07-08T15:15:28;3.10;;;2.90;;
47713;SDS011;33475;46.614;13.888;2023-07-08T15:17:59;2.53;;;2.20;;
47713;SDS011;33475;46.614;13.888;2023-07-08T15:20:31;3.00;;;2.58;;
47713;SDS011;33475;46.614;13.888;2023-07-08T15:22:57;3.03;;;2.63;;
47713;SDS011;33475;46.614;13.888;2023-07-08T15:25:23;5.18;;;3.28;;
47713;SDS011;33475;46.614;13.888;2023-07-08T15:27:51;6.35;;;3.20;;
47713;SDS011;33475;46.614;13.888;2023-07-08T15:30:22;4.68;;;3.00;;
47713;SDS011;33475;46.614;13.888;2023-07-08T15:32:48;3.60;;;2.95;;
47713;SDS011;33475;46.614;13.888;2023-07-08T15:35:17;3.60;;;3.15;;
47713;SDS011;33475;46.614;13.888;2023-07-08T15:37:44;3.50;;;2.78;;
47713;SDS011;33475;46.614;13.888;2023-07-08T15:40:14;2.85;;;2.63;;
47713;SDS011;33475;46.614;13.888;2023-07-08T15:42:41;3.10;;;2.80;;